createdAt,value
2023-11-12T00:01:02.738Z,52.88
2023-11-12T00:06:04.949Z,46.38
2023-11-12T00:11:06.899Z,38.67
2023-11-12T00:16:08.840Z,40.88
2023-11-12T00:21:10.644Z,67.20
2023-11-12T00:26:12.424Z,39.15
2023-11-12T00:31:18.334Z,55.13
2023-11-12T00:36:20.830Z,49.65
2023-11-12T00:41:23.075Z,66.45
2023-11-12T00:46:25.402Z,58.08
2023-11-12T00:51:27.333Z,45.42
2023-11-12T00:56:29.297Z,55.28
2023-11-12T01:01:32.248Z,58.83
2023-11-12T01:06:34.792Z,71.95
2023-11-12T01:11:38.501Z,55.00
2023-11-12T01:16:41.534Z,68.32
2023-11-12T01:21:43.437Z,61.45
2023-11-12T01:26:45.236Z,65.68
2023-11-12T01:31:47.649Z,63.85
2023-11-12T01:36:49.964Z,62.70
2023-11-12T01:41:52.270Z,51.42
2023-11-12T01:46:54.091Z,63.47
2023-11-12T01:51:56.039Z,59.22
2023-11-12T01:56:57.913Z,48.42
2023-11-12T02:01:59.889Z,49.75
2023-11-12T02:07:02.890Z,59.85
2023-11-12T02:12:05.398Z,58.33
2023-11-12T02:17:07.690Z,48.90
2023-11-12T02:22:09.694Z,63.17
2023-11-12T02:27:11.623Z,48.50
2023-11-12T02:32:13.520Z,61.92
2023-11-12T02:37:15.502Z,60.75
2023-11-12T02:42:18.389Z,58.22
2023-11-12T02:47:22.479Z,54.75
2023-11-12T02:52:24.442Z,65.03
2023-11-12T02:57:28.325Z,58.53
2023-11-12T03:02:30.347Z,52.40
2023-11-12T03:07:32.212Z,49.65
2023-11-12T03:12:34.224Z,61.13
2023-11-12T03:17:37.885Z,66.65
2023-11-12T03:22:40.318Z,43.45
2023-11-12T03:27:42.216Z,64.80
2023-11-12T03:32:44.051Z,54.35
2023-11-12T03:37:45.906Z,57.50
2023-11-12T03:42:48.226Z,49.97
2023-11-12T03:47:50.095Z,64.20
2023-11-12T03:52:52.915Z,48.78
2023-11-12T03:57:54.767Z,61.75
2023-11-12T04:02:56.768Z,53.65
2023-11-12T04:07:58.732Z,60.47
2023-11-12T04:13:00.723Z,55.13
2023-11-12T04:18:02.544Z,73.22
2023-11-12T04:23:04.397Z,62.42
2023-11-12T04:28:06.574Z,64.72
2023-11-12T04:33:08.565Z,58.88
2023-11-12T04:38:10.430Z,68.90
2023-11-12T04:43:13.724Z,70.18
2023-11-12T04:48:15.586Z,70.07
2023-11-12T04:53:17.831Z,49.92
2023-11-12T04:58:19.639Z,68.38
2023-11-12T05:03:21.694Z,64.95
2023-11-12T05:08:24.287Z,68.97
2023-11-12T05:13:26.910Z,59.40
2023-11-12T05:18:28.885Z,50.90
2023-11-12T05:23:30.755Z,58.53
2023-11-12T05:28:32.560Z,70.13
2023-11-12T05:33:35.510Z,65.03
2023-11-12T05:38:37.368Z,49.92
2023-11-12T05:43:39.291Z,65.00
2023-11-12T05:48:41.137Z,51.65
2023-11-12T05:53:42.956Z,47.10
2023-11-12T05:58:45.240Z,60.70
2023-11-12T06:03:47.181Z,56.30
2023-11-12T06:08:49.143Z,65.40
2023-11-12T06:13:50.975Z,53.92
2023-11-12T06:18:52.856Z,72.50
2023-11-12T06:23:54.667Z,63.70
2023-11-12T06:28:56.481Z,64.72
2023-11-12T06:33:58.436Z,57.55
2023-11-12T06:39:00.240Z,47.13
2023-11-12T06:44:02.064Z,57.80
2023-11-12T06:49:04.508Z,53.15
2023-11-12T06:54:06.501Z,45.13
2023-11-12T06:59:08.366Z,55.42
2023-11-12T07:04:11.804Z,61.10
2023-11-12T07:09:13.980Z,46.85
2023-11-12T07:14:15.798Z,41.65
2023-11-12T07:19:17.607Z,47.38
2023-11-12T07:24:19.639Z,77.50
2023-11-12T07:29:21.543Z,46.92
2023-11-12T07:34:23.464Z,56.25
2023-11-12T07:39:25.394Z,50.05
2023-11-12T07:44:27.276Z,65.32
2023-11-12T07:49:29.168Z,65.45
2023-11-12T07:54:31.000Z,87.57
2023-11-12T07:59:32.839Z,96.78
2023-11-12T08:04:34.673Z,59.20
2023-11-12T08:09:37.501Z,47.35
2023-11-12T08:14:39.567Z,65.47
2023-11-12T08:19:42.086Z,69.70
2023-11-12T08:24:43.874Z,55.97
2023-11-12T08:29:45.732Z,66.00
2023-11-12T08:34:47.511Z,67.82
2023-11-12T08:39:49.699Z,60.55
2023-11-12T08:44:51.702Z,62.58
2023-11-12T08:49:54.722Z,53.03
2023-11-12T08:54:56.611Z,59.17
2023-11-12T08:59:58.591Z,68.40
2023-11-12T09:05:00.681Z,69.35
2023-11-12T09:10:02.535Z,82.07
2023-11-12T09:15:05.685Z,95.45
2023-11-12T09:20:14.592Z,60.67
2023-11-12T09:25:16.609Z,69.40
2023-11-12T09:30:18.533Z,70.85
2023-11-12T09:35:20.338Z,76.45
2023-11-12T09:40:23.260Z,99.00
2023-11-12T09:45:26.988Z,66.57
2023-11-12T09:50:29.239Z,65.78
2023-11-12T09:55:32.114Z,60.67
2023-11-12T10:00:35.954Z,65.95
2023-11-12T10:05:40.227Z,64.30
2023-11-12T10:10:43.077Z,61.15
2023-11-12T10:15:45.167Z,61.00
2023-11-12T10:20:50.612Z,43.05
2023-11-12T10:25:52.466Z,47.30
2023-11-12T10:30:54.817Z,35.92
2023-11-12T10:35:57.177Z,53.50
2023-11-12T10:41:06.648Z,45.30
2023-11-12T10:46:08.647Z,54.90
2023-11-12T10:51:13.395Z,40.08
2023-11-12T10:56:16.879Z,44.72
2023-11-12T11:01:19.338Z,48.28
2023-11-12T11:06:22.663Z,50.75
2023-11-12T11:11:24.870Z,37.92
2023-11-12T11:16:46.342Z,37.63
2023-11-12T11:22:26.526Z,32.38
2023-11-12T11:27:29.512Z,20.42
2023-11-12T11:32:32.879Z,22.70
2023-11-12T11:38:06.971Z,18.20
2023-11-12T11:43:24.002Z,28.50
2023-11-12T11:48:26.545Z,55.00
2023-11-12T11:53:29.075Z,84.18
2023-11-12T11:58:41.497Z,90.05
2023-11-12T12:03:43.694Z,80.53
2023-11-12T12:08:53.290Z,69.47
2023-11-12T12:14:00.272Z,81.72
2023-11-12T12:19:03.720Z,80.18
2023-11-12T12:24:07.226Z,68.15
2023-11-12T12:29:16.688Z,68.72
2023-11-12T12:34:20.592Z,84.28
2023-11-12T12:39:24.611Z,75.78
2023-11-12T12:44:28.811Z,68.80
2023-11-12T12:49:33.711Z,63.85
2023-11-12T12:54:35.620Z,75.88
2023-11-12T12:59:39.078Z,55.30
2023-11-12T13:04:43.120Z,39.58
2023-11-12T13:09:46.338Z,31.88
2023-11-12T13:14:48.530Z,26.92
2023-11-12T13:19:50.680Z,11.38
2023-11-12T13:24:53.484Z,20.85
2023-11-12T13:29:55.340Z,22.60
2023-11-12T13:34:57.201Z,20.35
2023-11-12T13:39:59.462Z,21.20
2023-11-12T13:45:01.937Z,28.55
2023-11-12T13:50:09.146Z,21.52
2023-11-12T13:55:19.682Z,27.95
2023-11-12T14:00:21.752Z,34.35
2023-11-12T14:05:27.863Z,43.22
2023-11-12T14:10:31.729Z,44.58
2023-11-12T14:15:35.068Z,40.38
2023-11-12T14:20:37.406Z,44.53
2023-11-12T14:25:40.787Z,45.40
2023-11-12T14:30:42.630Z,47.78
2023-11-12T14:35:44.503Z,42.72
2023-11-12T14:40:46.534Z,33.35
2023-11-12T14:45:48.667Z,56.78
2023-11-12T14:50:50.591Z,58.80
2023-11-12T14:55:55.322Z,38.08
2023-11-12T15:01:00.775Z,42.22
2023-11-12T15:06:02.623Z,51.75
2023-11-12T15:11:04.881Z,50.25
2023-11-12T15:16:07.348Z,48.40
2023-11-12T15:21:09.323Z,56.47
2023-11-12T15:26:15.078Z,41.20
2023-11-12T15:31:17.138Z,51.42
2023-11-12T15:36:19.258Z,53.78
2023-11-12T15:41:21.273Z,57.03
2023-11-12T15:46:23.236Z,50.15
2023-11-12T15:51:25.092Z,61.35
2023-11-12T15:56:27.422Z,45.47
2023-11-12T16:01:29.953Z,60.65
2023-11-12T16:06:33.394Z,50.05
2023-11-12T16:11:37.163Z,51.53
2023-11-12T16:16:39.110Z,38.10
2023-11-12T16:21:46.534Z,45.95
2023-11-12T16:26:52.760Z,59.13
2023-11-12T16:32:10.115Z,50.25
2023-11-12T16:37:12.128Z,56.58
2023-11-12T16:42:15.886Z,83.00
2023-11-12T16:47:23.896Z,74.13
2023-11-12T16:52:26.094Z,73.82
2023-11-12T16:57:27.887Z,63.80
2023-11-12T17:02:29.876Z,64.50
2023-11-12T17:07:32.024Z,66.35
2023-11-12T17:12:34.171Z,64.03
2023-11-12T17:17:36.389Z,57.80
2023-11-12T17:22:38.748Z,76.25
2023-11-12T17:27:41.016Z,67.28
2023-11-12T17:32:43.003Z,69.65
2023-11-12T17:37:44.939Z,60.15
2023-11-12T17:42:48.119Z,79.68
2023-11-12T17:47:52.298Z,76.85
2023-11-12T17:52:54.220Z,51.08
2023-11-12T17:57:58.113Z,55.15
2023-11-12T18:03:00.447Z,49.60
2023-11-12T18:08:02.564Z,49.10
2023-11-12T18:13:04.945Z,42.10
2023-11-12T18:18:06.883Z,49.58
2023-11-12T18:23:08.734Z,56.25
2023-11-12T18:28:10.648Z,62.15
2023-11-12T18:33:14.116Z,76.88
2023-11-12T18:38:15.910Z,41.00
2023-11-12T18:43:17.727Z,63.15
2023-11-12T18:48:19.659Z,58.70
2023-11-12T18:53:22.731Z,83.00
2023-11-12T18:58:24.700Z,54.55
2023-11-12T19:03:26.757Z,64.13
2023-11-12T19:08:30.073Z,50.15
2023-11-12T19:13:32.004Z,49.97
2023-11-12T19:18:35.957Z,45.30
2023-11-12T19:23:38.406Z,47.35
2023-11-12T19:28:40.262Z,35.97
2023-11-12T19:33:45.717Z,32.33
2023-11-12T19:38:47.543Z,32.25
2023-11-12T19:43:49.342Z,38.10
2023-11-12T19:48:54.175Z,26.50
2023-11-12T19:53:56.281Z,30.02
2023-11-12T19:59:01.330Z,15.45
2023-11-12T20:04:05.594Z,12.20
2023-11-12T20:09:07.709Z,16.08
2023-11-12T20:14:09.564Z,14.43
2023-11-12T20:19:12.241Z,6.20
2023-11-12T20:24:14.628Z,15.05
2023-11-12T20:29:17.383Z,5.45
2023-11-12T20:34:19.232Z,7.95
2023-11-12T20:39:21.526Z,14.63
2023-11-12T20:44:23.487Z,12.15
2023-11-12T20:49:25.279Z,8.13
2023-11-12T20:54:27.064Z,8.85
2023-11-12T20:59:28.948Z,7.82
2023-11-12T21:04:30.898Z,17.95
2023-11-12T21:09:33.494Z,10.63
2023-11-12T21:14:35.429Z,6.20
2023-11-12T21:19:37.337Z,7.40
2023-11-12T21:24:43.620Z,9.32
2023-11-12T21:29:45.547Z,18.67
2023-11-12T21:34:47.631Z,5.80
2023-11-12T21:39:49.513Z,15.38
2023-11-12T21:44:51.374Z,15.80
2023-11-12T21:49:53.228Z,12.85
2023-11-12T21:54:55.115Z,31.83
2023-11-12T21:59:57.138Z,57.05
2023-11-12T22:05:04.216Z,77.68
2023-11-12T22:10:09.319Z,77.65
2023-11-12T22:15:15.099Z,96.03
2023-11-12T22:20:17.120Z,89.10
2023-11-12T22:25:19.004Z,76.50
2023-11-12T22:30:23.365Z,73.95
2023-11-12T22:35:25.499Z,66.35
2023-11-12T22:40:28.496Z,48.72
2023-11-12T22:45:31.016Z,39.67
2023-11-12T22:50:33.257Z,59.42
2023-11-12T22:55:35.944Z,36.58
2023-11-12T23:00:47.221Z,51.55
2023-11-12T23:05:49.843Z,37.60
2023-11-12T23:10:51.826Z,61.25
2023-11-12T23:15:54.809Z,56.20
2023-11-12T23:21:03.339Z,48.72
2023-11-12T23:26:10.948Z,51.22
2023-11-12T23:31:12.929Z,53.55
2023-11-12T23:36:15.272Z,47.63
2023-11-12T23:41:17.180Z,50.22
2023-11-12T23:46:19.188Z,48.00
2023-11-12T23:51:21.089Z,42.00
2023-11-12T23:56:24.248Z,49.30
